Time;durP1;ratioP1;P1;durP2;ratioP2;P2;SDS_P1;SDS_P2;PMS_P1;PMS_P2;Temp;Humidity;BMP_temperature;BMP_pressure;BME280_temperature;BME280_humidity;BME280_pressure;Samples;Min_cycle;Max_cycle;Signal;HPM_P1;HPM_P2
2021/06/08 00:00:38;;;;;;;0.50;0.38;;;16.90;63.60;;;;;;6217349;23;20015;-78
2021/06/08 00:03:04;;;;;;;0.20;0.20;;;16.70;63.50;;;;;;6242700;23;20451;-77
2021/06/08 00:05:31;;;;;;;0.30;0.30;;;16.70;63.50;;;;;;6216528;23;20024;-77
2021/06/08 00:08:05;;;;;;;0.30;0.30;;;16.80;63.60;;;;;;6242272;23;20075;-77
2021/06/08 00:10:31;;;;;;;0.30;0.30;;;16.70;63.60;;;;;;6217150;23;20019;-77
2021/06/08 00:12:56;;;;;;;0.30;0.30;;;16.70;63.60;;;;;;6217356;23;20328;-77
2021/06/08 00:15:22;;;;;;;0.40;0.40;;;16.70;63.70;;;;;;6244315;23;20046;-77
2021/06/08 00:17:48;;;;;;;0.52;0.20;;;16.60;63.70;;;;;;6217146;23;20001;-77
2021/06/08 00:20:14;;;;;;;0.30;0.30;;;16.60;63.70;;;;;;6192041;23;20016;-77
2021/06/08 00:22:40;;;;;;;0.35;0.30;;;16.60;63.90;;;;;;6217082;23;20004;-77
2021/06/08 00:25:07;;;;;;;0.30;0.30;;;16.50;63.90;;;;;;6217624;23;20015;-77
2021/06/08 00:27:33;;;;;;;0.30;0.30;;;16.40;64.00;;;;;;6216917;23;20023;-77
2021/06/08 00:29:59;;;;;;;0.22;0.22;;;16.40;64.10;;;;;;6191989;23;20008;-77
2021/06/08 00:32:25;;;;;;;0.20;0.20;;;16.40;64.10;;;;;;6243820;23;20004;-78
2021/06/08 00:34:50;;;;;;;0.20;0.20;;;16.40;64.20;;;;;;6243828;23;20012;-79
2021/06/08 00:37:16;;;;;;;0.30;0.30;;;16.30;64.20;;;;;;6242227;23;20031;-78
2021/06/08 00:39:42;;;;;;;0.45;0.45;;;16.30;64.20;;;;;;6242972;23;20028;-77
2021/06/08 00:42:07;;;;;;;0.30;0.30;;;16.30;64.30;;;;;;6217264;23;20008;-77
2021/06/08 00:44:33;;;;;;;0.40;0.40;;;16.20;65.00;;;;;;6242890;23;20012;-77
2021/06/08 00:46:59;;;;;;;0.43;0.30;;;16.20;64.40;;;;;;6242140;23;20012;-77
2021/06/08 00:49:25;;;;;;;0.32;0.32;;;16.20;64.50;;;;;;6242079;22;20305;-77
2021/06/08 00:51:51;;;;;;;0.47;0.28;;;16.10;64.60;;;;;;6244134;23;20012;-77
2021/06/08 00:54:17;;;;;;;0.30;0.30;;;16.10;64.70;;;;;;6217003;23;20379;-77
2021/06/08 00:56:44;;;;;;;0.30;0.30;;;16.00;64.80;;;;;;6216969;23;20004;-77
2021/06/08 00:59:11;;;;;;;0.20;0.20;;;16.00;64.90;;;;;;6242323;23;20087;-77
2021/06/08 01:01:37;;;;;;;0.25;0.25;;;16.00;64.90;;;;;;6242169;23;20011;-77
2021/06/08 01:04:04;;;;;;;0.30;0.30;;;16.00;65.00;;;;;;6241237;23;20001;-76
2021/06/08 01:06:34;;;;;;;0.30;0.30;;;15.90;65.00;;;;;;6243779;23;20009;-77
2021/06/08 01:09:01;;;;;;;0.50;0.50;;;15.90;65.10;;;;;;6236494;23;20008;-77
2021/06/08 01:11:27;;;;;;;0.32;0.32;;;15.80;65.20;;;;;;6242148;23;20012;-77
2021/06/08 01:13:53;;;;;;;0.40;0.40;;;15.80;65.20;;;;;;6244176;23;20027;-77
2021/06/08 01:16:19;;;;;;;0.43;0.43;;;15.80;65.20;;;;;;6242282;23;20007;-78
2021/06/08 01:18:44;;;;;;;0.32;0.32;;;15.80;65.30;;;;;;6242643;23;20023;-78
2021/06/08 01:21:12;;;;;;;0.38;0.30;;;15.80;65.40;;;;;;6244815;23;20467;-78
2021/06/08 01:23:39;;;;;;;0.35;0.35;;;15.70;65.40;;;;;;6243588;23;20008;-78
2021/06/08 01:26:12;;;;;;;0.60;0.45;;;15.80;65.50;;;;;;6217998;23;20335;-78
2021/06/08 01:28:40;;;;;;;0.30;0.30;;;15.60;65.60;;;;;;6217856;23;20102;-78
2021/06/08 01:31:12;;;;;;;0.57;0.50;;;15.60;65.60;;;;;;6243116;23;20432;-78
2021/06/08 01:33:40;;;;;;;0.40;0.40;;;15.60;65.70;;;;;;6243179;23;20008;-78
2021/06/08 01:36:11;;;;;;;0.50;0.50;;;15.60;65.70;;;;;;6217839;23;20344;-79
2021/06/08 01:38:38;;;;;;;0.60;0.50;;;15.70;65.80;;;;;;6243343;23;20027;-78
2021/06/08 01:41:04;;;;;;;0.40;0.40;;;15.60;65.80;;;;;;6243187;23;20618;-78
2021/06/08 01:43:30;;;;;;;0.65;0.50;;;15.50;65.80;;;;;;6243337;23;20004;-78
2021/06/08 01:45:56;;;;;;;0.80;0.40;;;15.50;66.00;;;;;;6218462;23;20012;-79
2021/06/08 01:48:22;;;;;;;0.30;0.30;;;15.50;66.10;;;;;;6244609;23;20328;-78
2021/06/08 01:50:50;;;;;;;0.30;0.30;;;15.40;66.20;;;;;;6244599;23;20012;-79
2021/06/08 01:53:43;;;;;;;0.38;0.38;;;15.40;66.20;;;;;;6217898;23;20038;-79
2021/06/08 01:56:14;;;;;;;0.47;0.47;;;15.40;66.30;;;;;;6244467;23;20000;-78
2021/06/08 01:58:54;;;;;;;0.30;0.30;;;15.30;66.30;;;;;;6244588;23;20001;-78
2021/06/08 02:01:24;;;;;;;0.40;0.40;;;15.30;66.40;;;;;;6240689;23;20424;-78
2021/06/08 02:04:06;;;;;;;0.60;0.43;;;15.30;66.40;;;;;;6218108;23;20004;-78
2021/06/08 02:06:48;;;;;;;0.30;0.30;;;15.20;66.50;;;;;;6217860;23;20227;-78
2021/06/08 02:09:23;;;;;;;0.40;0.40;;;15.20;66.60;;;;;;6243018;23;20008;-79
2021/06/08 02:12:12;;;;;;;0.40;0.40;;;15.20;66.60;;;;;;6192593;23;20086;-79
2021/06/08 02:15:07;;;;;;;0.40;0.40;;;15.10;66.70;;;;;;6192759;23;20471;-78
2021/06/08 02:17:45;;;;;;;0.50;0.50;;;15.20;66.80;;;;;;6217562;23;19993;-78
2021/06/08 02:20:18;;;;;;;0.40;0.40;;;15.10;66.80;;;;;;6244829;23;20032;-78
2021/06/08 02:22:50;;;;;;;0.40;0.40;;;15.10;66.80;;;;;;6217597;23;20016;-79
2021/06/08 02:25:18;;;;;;;0.55;0.55;;;15.10;66.90;;;;;;6243212;23;20432;-78
2021/06/08 02:27:45;;;;;;;0.40;0.40;;;15.10;67.00;;;;;;6217278;23;20027;-79
2021/06/08 02:30:12;;;;;;;0.82;0.55;;;15.10;67.00;;;;;;6243305;23;20004;-78
2021/06/08 02:32:39;;;;;;;0.75;0.40;;;15.00;67.00;;;;;;6243010;22;20016;-78
2021/06/08 02:35:06;;;;;;;0.73;0.70;;;15.00;67.10;;;;;;6244981;23;20008;-78
2021/06/08 02:37:34;;;;;;;0.40;0.40;;;15.00;67.20;;;;;;6243031;23;20462;-78
2021/06/08 02:40:03;;;;;;;0.40;0.40;;;15.00;67.30;;;;;;6243462;23;20012;-78
2021/06/08 02:42:29;;;;;;;0.52;0.52;;;15.00;67.30;;;;;;6218162;23;20060;-78
2021/06/08 02:44:57;;;;;;;0.38;0.38;;;14.90;67.40;;;;;;6217869;23;20000;-78
2021/06/08 02:47:24;;;;;;;0.38;0.38;;;14.80;67.50;;;;;;6242998;22;20375;-78
2021/06/08 02:49:50;;;;;;;0.77;0.60;;;14.80;67.60;;;;;;6242695;23;20095;-78
2021/06/08 02:52:18;;;;;;;0.65;0.52;;;14.80;67.60;;;;;;6243664;23;20015;-78
2021/06/08 02:54:45;;;;;;;0.95;0.77;;;14.80;67.80;;;;;;6217389;23;20030;-79
2021/06/08 02:57:12;;;;;;;0.55;0.50;;;14.80;68.00;;;;;;6243876;23;20063;-78
2021/06/08 02:59:40;;;;;;;0.63;0.63;;;14.70;67.90;;;;;;6217755;23;20026;-78
2021/06/08 03:02:11;;;;;;;0.65;0.65;;;14.70;67.90;;;;;;6244585;23;20467;-78
2021/06/08 03:04:58;;;;;;;0.47;0.47;;;14.70;68.00;;;;;;6218291;23;20008;-78
2021/06/08 03:07:25;;;;;;;0.60;0.60;;;14.70;68.20;;;;;;6215002;23;20016;-78
2021/06/08 03:10:04;;;;;;;0.50;0.50;;;14.60;68.10;;;;;;6192292;23;20318;-78
2021/06/08 03:12:33;;;;;;;0.85;0.63;;;14.70;68.20;;;;;;6243389;23;20421;-78
2021/06/08 03:15:02;;;;;;;0.70;0.63;;;14.60;68.20;;;;;;6244171;23;20413;-78
2021/06/08 03:17:29;;;;;;;0.57;0.57;;;14.60;68.30;;;;;;6192490;23;20005;-78
2021/06/08 03:20:01;;;;;;;0.38;0.38;;;14.60;68.30;;;;;;6242835;23;20004;-78
2021/06/08 03:22:28;;;;;;;0.50;0.50;;;14.50;68.40;;;;;;6217621;23;20436;-78
2021/06/08 03:24:57;;;;;;;0.45;0.45;;;14.50;68.50;;;;;;6244712;23;20014;-78
2021/06/08 03:27:25;;;;;;;0.77;0.70;;;14.50;68.70;;;;;;6243318;23;20012;-78
2021/06/08 03:29:53;;;;;;;0.77;0.60;;;14.50;68.70;;;;;;6191784;23;20012;-79
2021/06/08 03:32:20;;;;;;;0.73;0.70;;;14.40;68.70;;;;;;6217072;23;20008;-78
2021/06/08 03:34:47;;;;;;;0.70;0.70;;;14.50;68.80;;;;;;6244136;23;20419;-79
2021/06/08 03:37:13;;;;;;;0.63;0.63;;;14.40;68.80;;;;;;6192421;23;20000;-78
2021/06/08 03:39:41;;;;;;;0.60;0.60;;;14.40;68.90;;;;;;6192342;23;20000;-78
2021/06/08 03:42:08;;;;;;;0.73;0.57;;;14.40;69.00;;;;;;6242899;23;20014;-78
2021/06/08 03:44:35;;;;;;;0.40;0.40;;;14.30;69.00;;;;;;6217594;23;20011;-79
2021/06/08 03:47:01;;;;;;;0.70;0.55;;;14.40;69.80;;;;;;6192712;23;20559;-78
2021/06/08 03:49:27;;;;;;;0.52;0.52;;;14.40;69.10;;;;;;6217323;23;20004;-78
2021/06/08 03:51:55;;;;;;;1.13;0.63;;;14.40;69.10;;;;;;6242270;23;20440;-78
2021/06/08 03:54:21;;;;;;;0.40;0.40;;;14.40;69.70;;;;;;6242326;23;20482;-78
2021/06/08 03:56:50;;;;;;;0.60;0.60;;;14.40;69.00;;;;;;6244309;23;20050;-78
2021/06/08 03:59:19;;;;;;;0.73;0.73;;;14.50;69.00;;;;;;6242619;23;20066;-78
2021/06/08 04:01:47;;;;;;;0.63;0.50;;;14.50;69.00;;;;;;6240049;22;20059;-79
2021/06/08 04:04:14;;;;;;;0.57;0.55;;;14.50;69.10;;;;;;6192469;23;20008;-79
2021/06/08 04:06:40;;;;;;;0.57;0.57;;;14.50;69.10;;;;;;6217236;23;20436;-78
2021/06/08 04:09:07;;;;;;;0.68;0.65;;;14.40;69.10;;;;;;6244315;23;20007;-78
2021/06/08 04:11:35;;;;;;;0.50;0.50;;;14.40;69.10;;;;;;6217583;23;20008;-78
2021/06/08 04:14:02;;;;;;;0.70;0.68;;;14.50;69.20;;;;;;6215165;23;20013;-78
2021/06/08 04:16:28;;;;;;;0.60;0.60;;;14.50;69.20;;;;;;6242695;23;20000;-79
2021/06/08 04:18:54;;;;;;;1.02;0.77;;;14.40;69.10;;;;;;6217300;23;20058;-78
2021/06/08 04:21:23;;;;;;;0.70;0.70;;;14.50;69.20;;;;;;6244318;23;20005;-79
2021/06/08 04:23:58;;;;;;;1.08;0.70;;;14.50;69.20;;;;;;6215286;23;20096;-78
2021/06/08 04:26:25;;;;;;;0.50;0.50;;;14.50;69.40;;;;;;6242516;23;20016;-79
2021/06/08 04:28:52;;;;;;;1.20;0.90;;;14.50;69.20;;;;;;6242649;23;20092;-78
2021/06/08 04:31:21;;;;;;;0.90;0.70;;;14.50;69.20;;;;;;6244716;23;20008;-78
2021/06/08 04:33:48;;;;;;;1.17;0.63;;;14.50;69.20;;;;;;6243936;23;20075;-78
2021/06/08 04:36:14;;;;;;;0.85;0.60;;;14.60;69.20;;;;;;6216512;23;20482;-78
2021/06/08 04:38:40;;;;;;;0.63;0.63;;;14.50;69.20;;;;;;6242564;23;20083;-78
2021/06/08 04:41:06;;;;;;;0.55;0.55;;;14.60;69.30;;;;;;6192208;23;20091;-78
2021/06/08 04:43:33;;;;;;;0.63;0.63;;;14.70;69.30;;;;;;6242594;22;20378;-78
2021/06/08 04:46:07;;;;;;;0.70;0.60;;;14.60;69.30;;;;;;6216580;23;20332;-78
2021/06/08 04:48:33;;;;;;;0.70;0.68;;;14.70;69.40;;;;;;6217870;23;20004;-78
2021/06/08 04:51:00;;;;;;;0.77;0.73;;;14.70;69.30;;;;;;6242296;23;20498;-78
2021/06/08 04:53:26;;;;;;;0.60;0.60;;;14.70;69.30;;;;;;6191834;23;20030;-78
2021/06/08 04:55:53;;;;;;;0.60;0.50;;;14.70;69.30;;;;;;6245490;23;20444;-78
2021/06/08 04:58:19;;;;;;;0.98;0.70;;;14.80;69.30;;;;;;6220517;23;20098;-78
2021/06/08 05:00:56;;;;;;;1.27;0.70;;;14.90;69.20;;;;;;6195089;23;20066;-78
2021/06/08 05:03:27;;;;;;;0.60;0.60;;;14.90;69.10;;;;;;6245670;23;20011;-78
2021/06/08 05:05:54;;;;;;;;;;;15.00;68.90;;;;;;6195692;23;20008;-78
2021/06/08 05:08:26;;;;;;;0.30;0.30;;;15.20;68.80;;;;;;6194954;23;19908;-79
2021/06/08 05:11:14;;;;;;;0.47;0.47;;;15.20;68.50;;;;;;6245214;23;20019;-79
2021/06/08 05:13:46;;;;;;;1.33;1.00;;;15.30;68.30;;;;;;6246834;23;20057;-79
2021/06/08 05:16:12;;;;;;;1.00;0.77;;;15.40;68.20;;;;;;6247566;23;20008;-79
2021/06/08 05:18:41;;;;;;;0.90;0.75;;;15.50;68.10;;;;;;6219949;23;19996;-79
2021/06/08 05:21:09;;;;;;;1.60;0.80;;;15.60;68.00;;;;;;6220157;23;20110;-79
2021/06/08 05:23:35;;;;;;;0.73;0.70;;;15.60;67.80;;;;;;6219874;23;20328;-79
2021/06/08 05:26:02;;;;;;;0.90;0.70;;;15.70;67.70;;;;;;6219907;23;20012;-79
2021/06/08 05:28:28;;;;;;;0.75;0.75;;;15.90;67.60;;;;;;6243691;22;20008;-80
2021/06/08 05:30:54;;;;;;;0.60;0.60;;;16.00;67.40;;;;;;6242911;23;20004;-79
2021/06/08 05:33:21;;;;;;;0.40;0.40;;;16.10;67.20;;;;;;6244995;23;20015;-79
2021/06/08 05:35:51;;;;;;;0.80;0.70;;;16.20;67.10;;;;;;6246502;23;20062;-79
2021/06/08 05:38:16;;;;;;;0.40;0.40;;;16.30;66.80;;;;;;6243510;23;20001;-80
2021/06/08 05:40:44;;;;;;;0.50;0.50;;;16.40;66.80;;;;;;6246467;23;20301;-80
2021/06/08 05:43:10;;;;;;;0.50;0.50;;;16.50;66.70;;;;;;6245311;23;20028;-79
2021/06/08 05:45:36;;;;;;;0.77;0.60;;;16.50;66.50;;;;;;6245027;23;20014;-79
2021/06/08 05:48:03;;;;;;;0.70;0.60;;;16.60;66.40;;;;;;6245026;23;20091;-79
2021/06/08 05:50:29;;;;;;;0.60;0.60;;;16.80;66.50;;;;;;6219677;23;20004;-79
2021/06/08 05:52:55;;;;;;;1.02;0.80;;;16.80;66.40;;;;;;6244873;23;20095;-79
2021/06/08 05:55:24;;;;;;;0.68;0.68;;;16.80;66.30;;;;;;6219727;23;20333;-79
2021/06/08 05:57:52;;;;;;;0.55;0.55;;;16.90;66.30;;;;;;6246629;23;20004;-79
2021/06/08 06:00:19;;;;;;;0.77;0.63;;;16.90;66.20;;;;;;6219584;23;20008;-78
2021/06/08 06:02:45;;;;;;;0.80;0.68;;;17.00;66.10;;;;;;6245037;23;20016;-79
2021/06/08 06:05:12;;;;;;;0.50;0.50;;;17.10;66.20;;;;;;6246991;23;20052;-78
2021/06/08 06:07:39;;;;;;;0.52;0.50;;;17.10;65.90;;;;;;6242905;23;20070;-77
2021/06/08 06:10:07;;;;;;;0.47;0.47;;;17.20;65.80;;;;;;6243392;23;20004;-78
2021/06/08 06:12:37;;;;;;;0.47;0.40;;;17.30;65.70;;;;;;6217928;23;20008;-77
2021/06/08 06:15:04;;;;;;;0.37;0.37;;;17.40;65.50;;;;;;6244471;23;20004;-77
2021/06/08 06:17:34;;;;;;;0.60;0.60;;;17.50;65.30;;;;;;6243074;23;20091;-77
2021/06/08 06:20:00;;;;;;;1.08;0.80;;;17.50;65.20;;;;;;6243411;23;20054;-77
2021/06/08 06:22:26;;;;;;;0.50;0.50;;;17.60;65.10;;;;;;6242799;23;20466;-77
2021/06/08 06:24:53;;;;;;;0.60;0.60;;;17.80;65.00;;;;;;6242930;23;20008;-77
2021/06/08 06:27:19;;;;;;;0.65;0.45;;;17.80;64.90;;;;;;6242809;23;20008;-77
2021/06/08 06:29:48;;;;;;;0.98;0.68;;;17.90;64.80;;;;;;6244949;23;19997;-77
2021/06/08 06:32:13;;;;;;;0.50;0.50;;;18.00;64.70;;;;;;6243085;23;20023;-79
2021/06/08 06:34:39;;;;;;;1.08;0.60;;;18.10;64.40;;;;;;6224831;23;20063;-76
2021/06/08 06:37:07;;;;;;;0.50;0.40;;;18.20;64.30;;;;;;6254370;22;20079;-76
2021/06/08 06:39:35;;;;;;;0.50;0.50;;;18.30;64.10;;;;;;6254468;23;20015;-78
2021/06/08 06:42:06;;;;;;;0.55;0.50;;;18.50;63.90;;;;;;6243600;23;20023;-78
2021/06/08 06:44:33;;;;;;;0.40;0.40;;;18.60;63.70;;;;;;6246765;23;20012;-82
2021/06/08 06:47:00;;;;;;;0.50;0.40;;;18.70;63.60;;;;;;6222989;23;20019;-77
2021/06/08 06:49:25;;;;;;;0.50;0.50;;;18.80;63.40;;;;;;6244540;23;20454;-78
2021/06/08 06:51:54;;;;;;;0.63;0.40;;;18.90;63.20;;;;;;6217373;23;20012;-79
2021/06/08 06:54:20;;;;;;;0.45;0.45;;;19.10;63.00;;;;;;6242915;23;20009;-77
2021/06/08 06:56:46;;;;;;;0.60;0.50;;;19.20;62.80;;;;;;6192398;23;20005;-78
2021/06/08 06:59:12;;;;;;;0.52;0.47;;;19.30;62.60;;;;;;6249066;23;20011;-79
2021/06/08 07:01:41;;;;;;;1.17;0.57;;;19.50;62.50;;;;;;6250674;23;19996;-77
2021/06/08 07:04:08;;;;;;;0.60;0.60;;;19.70;62.40;;;;;;6246290;23;20008;-78
2021/06/08 07:06:35;;;;;;;0.50;0.50;;;19.90;62.20;;;;;;6254404;23;20005;-76
2021/06/08 07:09:01;;;;;;;0.60;0.50;;;20.00;61.90;;;;;;6229158;23;20000;-78
2021/06/08 07:11:28;;;;;;;0.40;0.40;;;20.20;61.60;;;;;;6247152;22;20012;-77
2021/06/08 07:14:19;;;;;;;0.63;0.60;;;20.40;61.60;;;;;;6245136;23;20004;-82
2021/06/08 07:16:45;;;;;;;;;;;20.50;61.30;;;;;;6159404;23;20036;-81
2021/06/08 07:19:14;;;;;;;0.50;0.50;;;20.70;61.30;;;;;;6185725;23;20391;-79
2021/06/08 07:21:42;;;;;;;0.50;0.50;;;20.90;61.10;;;;;;6186438;23;20001;-79
2021/06/08 07:24:09;;;;;;;0.40;0.40;;;21.10;60.90;;;;;;6162263;23;20040;-77
2021/06/08 07:26:36;;;;;;;0.50;0.50;;;21.30;60.60;;;;;;6187450;23;20008;-79
2021/06/08 07:29:02;;;;;;;0.50;0.50;;;21.40;60.50;;;;;;6212408;23;20009;-80
2021/06/08 07:31:46;;;;;;;0.50;0.50;;;21.50;60.50;;;;;;6138360;23;20016;-77
2021/06/08 07:34:22;;;;;;;0.30;0.30;;;21.70;60.50;;;;;;6164033;23;20318;-76
2021/06/08 07:36:48;;;;;;;0.88;0.50;;;21.90;60.30;;;;;;6219617;23;20023;-75
2021/06/08 07:39:28;;;;;;;0.43;0.43;;;22.10;60.00;;;;;;6188438;23;20055;-74
2021/06/08 07:42:15;;;;;;;0.50;0.50;;;22.30;59.90;;;;;;6241421;23;20027;-78
2021/06/08 07:45:03;;;;;;;0.43;0.43;;;22.40;59.80;;;;;;6242441;23;20063;-73
2021/06/08 07:47:31;;;;;;;0.43;0.40;;;22.60;59.80;;;;;;6244201;23;20058;-77
2021/06/08 07:49:58;;;;;;;0.47;0.47;;;22.80;59.70;;;;;;6218664;23;20006;-77
2021/06/08 07:52:25;;;;;;;0.40;0.40;;;22.90;59.50;;;;;;6218941;23;20065;-77
2021/06/08 07:54:51;;;;;;;0.43;0.43;;;22.90;59.40;;;;;;6221261;23;20420;-76
2021/06/08 07:57:19;;;;;;;1.35;0.50;;;23.00;59.50;;;;;;6246982;22;19996;-77
2021/06/08 07:59:45;;;;;;;0.50;0.50;;;23.20;59.50;;;;;;6244446;23;20455;-75
2021/06/08 08:02:12;;;;;;;0.50;0.50;;;23.40;59.20;;;;;;6243042;23;20448;-78
2021/06/08 08:04:41;;;;;;;0.60;0.60;;;23.60;59.10;;;;;;6243095;23;20009;-74
2021/06/08 08:07:08;;;;;;;0.40;0.40;;;23.70;58.80;;;;;;6244594;23;20015;-74
2021/06/08 08:09:33;;;;;;;0.55;0.50;;;23.80;58.90;;;;;;6244361;23;20078;-75
2021/06/08 08:12:01;;;;;;;0.77;0.60;;;24.00;58.80;;;;;;6244597;23;20008;-77
2021/06/08 08:14:27;;;;;;;0.50;0.50;;;24.10;58.70;;;;;;6245752;23;20031;-75
2021/06/08 08:16:55;;;;;;;0.40;0.40;;;24.30;59.10;;;;;;6244287;23;20004;-80
2021/06/08 08:19:21;;;;;;;0.77;0.63;;;24.40;58.40;;;;;;6219065;23;20038;-77
2021/06/08 08:21:48;;;;;;;0.50;0.50;;;24.50;58.40;;;;;;6245490;23;20001;-80
2021/06/08 08:24:14;;;;;;;0.47;0.47;;;24.60;58.30;;;;;;6244561;23;20008;-79
2021/06/08 08:26:41;;;;;;;0.47;0.43;;;24.80;58.20;;;;;;6216629;23;20028;-80
2021/06/08 08:29:07;;;;;;;0.70;0.70;;;24.80;58.10;;;;;;6252956;23;20127;-78
2021/06/08 08:31:33;;;;;;;0.88;0.60;;;24.90;58.20;;;;;;6261538;23;20020;-78
2021/06/08 08:34:00;;;;;;;0.50;0.50;;;24.90;58.10;;;;;;6244531;23;20022;-77
2021/06/08 08:36:29;;;;;;;0.60;0.60;;;24.70;58.50;;;;;;6243821;23;20016;-77
2021/06/08 08:38:55;;;;;;;0.77;0.52;;;24.90;59.30;;;;;;6217750;23;20075;-78
2021/06/08 08:41:22;;;;;;;0.50;0.50;;;25.00;58.40;;;;;;6254407;23;20026;-77
2021/06/08 08:43:49;;;;;;;0.52;0.52;;;25.00;58.30;;;;;;6250581;22;20429;-76
2021/06/08 08:46:16;;;;;;;0.55;0.55;;;25.10;58.30;;;;;;6244384;23;20452;-75
2021/06/08 08:48:44;;;;;;;0.73;0.52;;;25.20;58.30;;;;;;6244171;22;20007;-76
2021/06/08 08:51:13;;;;;;;0.82;0.60;;;25.50;58.10;;;;;;6255412;23;20004;-76
2021/06/08 08:53:40;;;;;;;0.60;0.60;;;25.70;57.90;;;;;;6253063;23;20004;-77
2021/06/08 08:56:06;;;;;;;0.55;0.55;;;25.90;57.60;;;;;;6217959;23;20409;-78
2021/06/08 08:58:33;;;;;;;0.50;0.50;;;26.10;57.40;;;;;;6216604;23;20003;-75
2021/06/08 09:01:00;;;;;;;0.50;0.50;;;26.30;57.20;;;;;;6255482;23;20023;-76
2021/06/08 09:03:26;;;;;;;0.57;0.57;;;26.30;57.10;;;;;;6250946;23;20071;-74
2021/06/08 09:05:58;;;;;;;0.57;0.57;;;26.40;57.20;;;;;;6243720;23;20006;-76
2021/06/08 09:08:24;;;;;;;0.70;0.70;;;26.60;57.10;;;;;;6242494;23;20101;-74
2021/06/08 09:10:52;;;;;;;0.73;0.73;;;26.60;56.90;;;;;;6243898;23;19996;-75
2021/06/08 09:13:17;;;;;;;0.73;0.60;;;26.70;57.00;;;;;;6244247;23;20089;-75
2021/06/08 09:15:44;;;;;;;0.60;0.60;;;26.80;56.90;;;;;;6218763;23;20011;-76
2021/06/08 09:18:10;;;;;;;0.63;0.63;;;26.80;56.90;;;;;;6241811;23;20008;-77
2021/06/08 09:20:38;;;;;;;0.70;0.70;;;26.90;57.00;;;;;;6242318;23;20008;-76
2021/06/08 09:23:09;;;;;;;0.60;0.60;;;26.70;57.20;;;;;;6216702;23;20094;-77
2021/06/08 09:25:41;;;;;;;0.57;0.57;;;26.80;57.30;;;;;;6216520;23;20012;-76
2021/06/08 09:28:25;;;;;;;0.50;0.50;;;26.70;57.30;;;;;;6191458;23;20015;-76
2021/06/08 09:31:04;;;;;;;0.70;0.70;;;26.80;57.40;;;;;;6241817;23;20359;-77
2021/06/08 09:33:36;;;;;;;0.60;0.60;;;26.90;57.20;;;;;;6245394;23;20079;-80
2021/06/08 09:36:21;;;;;;;0.68;0.68;;;27.10;57.00;;;;;;6217285;23;20006;-80
2021/06/08 09:39:05;;;;;;;0.73;0.73;;;27.30;56.90;;;;;;6184566;23;20036;-75
2021/06/08 09:41:41;;;;;;;0.50;0.50;;;27.40;56.60;;;;;;6211494;23;20055;-77
2021/06/08 09:44:10;;;;;;;0.73;0.73;;;27.50;56.50;;;;;;6140455;23;20034;-78
2021/06/08 09:46:56;;;;;;;0.77;0.70;;;27.50;56.30;;;;;;6164355;23;20009;-79
2021/06/08 09:49:36;;;;;;;0.55;0.55;;;27.60;56.30;;;;;;6217975;23;20008;-79
2021/06/08 09:52:06;;;;;;;0.50;0.50;;;27.70;56.20;;;;;;6214146;23;20012;-79
2021/06/08 09:54:42;;;;;;;0.70;0.70;;;27.80;56.20;;;;;;6140274;23;20011;-80
2021/06/08 09:57:20;;;;;;;0.65;0.65;;;27.80;56.30;;;;;;6161638;23;20012;-81
2021/06/08 09:59:49;;;;;;;0.70;0.70;;;27.80;56.20;;;;;;6204500;23;20150;-76
2021/06/08 10:02:36;;;;;;;0.70;0.60;;;28.00;56.20;;;;;;6189559;23;20080;-78
2021/06/08 10:05:20;;;;;;;0.80;0.80;;;28.20;56.00;;;;;;6167316;23;20448;-79
2021/06/08 10:07:49;;;;;;;0.60;0.60;;;28.30;55.80;;;;;;6192941;23;20172;-78
2021/06/08 10:10:18;;;;;;;0.93;0.73;;;28.20;55.70;;;;;;6168433;23;20016;-78
2021/06/08 10:13:02;;;;;;;0.70;0.70;;;28.10;55.90;;;;;;6224848;23;20090;-78
2021/06/08 10:15:31;;;;;;;0.52;0.52;;;27.90;56.20;;;;;;6218004;23;20031;-78
2021/06/08 10:18:00;;;;;;;0.50;0.50;;;27.70;56.60;;;;;;6245833;23;19996;-79
2021/06/08 10:20:29;;;;;;;0.90;0.90;;;27.90;56.70;;;;;;6247413;23;20039;-78
2021/06/08 10:22:56;;;;;;;0.77;0.77;;;27.90;56.50;;;;;;6242688;23;20007;-75
2021/06/08 10:25:22;;;;;;;0.75;0.75;;;28.00;56.50;;;;;;6245449;23;20000;-75
2021/06/08 10:27:49;;;;;;;0.60;0.60;;;28.10;56.00;;;;;;6245329;23;20000;-76
2021/06/08 10:30:16;;;;;;;0.65;0.60;;;28.40;55.80;;;;;;6246916;23;20115;-75
2021/06/08 10:32:41;;;;;;;0.57;0.57;;;28.40;55.60;;;;;;6244285;23;20027;-79
2021/06/08 10:35:08;;;;;;;0.63;0.63;;;28.40;55.40;;;;;;6216096;23;20032;-76
2021/06/08 10:37:36;;;;;;;0.70;0.70;;;28.50;55.30;;;;;;6246296;23;20023;-75
2021/06/08 10:40:04;;;;;;;0.70;0.70;;;28.50;55.20;;;;;;6248901;22;19996;-76
2021/06/08 10:42:30;;;;;;;0.60;0.60;;;28.50;55.20;;;;;;6193243;23;20000;-77
2021/06/08 10:45:07;;;;;;;0.60;0.60;;;28.40;55.30;;;;;;6243020;23;20000;-77
2021/06/08 10:47:38;;;;;;;0.60;0.60;;;28.40;55.40;;;;;;6244805;23;20004;-76
2021/06/08 10:50:25;;;;;;;0.70;0.70;;;28.30;55.30;;;;;;6245168;23;20008;-76
2021/06/08 10:52:55;;;;;;;0.65;0.65;;;28.30;55.30;;;;;;6244848;22;20464;-76
2021/06/08 10:55:39;;;;;;;0.60;0.60;;;28.30;55.30;;;;;;6244993;23;20020;-77
2021/06/08 10:58:07;;;;;;;0.55;0.55;;;28.20;55.20;;;;;;6242615;23;20336;-76
2021/06/08 11:00:39;;;;;;;0.70;0.70;;;28.30;55.20;;;;;;6242982;23;20448;-78
2021/06/08 11:03:07;;;;;;;0.50;0.50;;;28.30;55.00;;;;;;6242782;23;20016;-75
2021/06/08 11:05:55;;;;;;;0.70;0.70;;;28.40;55.00;;;;;;6244464;23;20525;-76
2021/06/08 11:08:59;;;;;;;0.65;0.65;;;28.40;54.70;;;;;;6244899;23;20004;-77
2021/06/08 11:11:41;;;;;;;0.60;0.60;;;28.40;54.70;;;;;;6244524;23;20091;-75
2021/06/08 11:14:07;;;;;;;0.65;0.65;;;28.50;54.60;;;;;;6243115;23;20356;-77
2021/06/08 11:16:35;;;;;;;0.70;0.70;;;28.50;54.70;;;;;;6192390;23;19996;-75
2021/06/08 11:19:01;;;;;;;0.60;0.60;;;28.40;54.40;;;;;;6192487;23;20004;-78
2021/06/08 11:21:28;;;;;;;0.60;0.60;;;28.40;54.50;;;;;;6244534;23;20008;-77
2021/06/08 11:23:55;;;;;;;0.60;0.60;;;28.40;54.50;;;;;;6240507;23;20036;-76
2021/06/08 11:26:49;;;;;;;0.60;0.60;;;28.40;54.30;;;;;;6242695;23;20054;-75
2021/06/08 11:29:54;;;;;;;0.60;0.60;;;28.50;54.40;;;;;;6245094;23;20027;-76
2021/06/08 11:32:43;;;;;;;0.70;0.70;;;28.50;54.40;;;;;;6217614;23;20107;-80
2021/06/08 11:35:28;;;;;;;0.70;0.70;;;28.50;54.40;;;;;;6217385;23;20031;-80
2021/06/08 11:38:01;;;;;;;0.80;0.80;;;28.30;54.40;;;;;;6242658;23;20000;-80
2021/06/08 11:40:47;;;;;;;0.80;0.80;;;28.20;54.30;;;;;;6242705;23;20023;-80
2021/06/08 11:43:53;;;;;;;0.57;0.57;;;28.30;54.40;;;;;;6246641;23;20093;-84
2021/06/08 11:46:28;;;;;;;0.82;0.82;;;28.20;54.40;;;;;;6221219;23;20016;-82
2021/06/08 11:49:14;;;;;;;0.60;0.60;;;28.10;54.40;;;;;;6245023;23;20004;-81
2021/06/08 11:51:49;;;;;;;0.70;0.70;;;28.20;54.50;;;;;;6244904;23;20027;-79
2021/06/08 11:54:22;;;;;;;0.50;0.50;;;28.20;54.40;;;;;;6192376;23;20012;-80
2021/06/08 11:56:53;;;;;;;0.73;0.73;;;28.20;54.30;;;;;;6192565;23;20012;-81
2021/06/08 11:59:24;;;;;;;0.43;0.43;;;28.20;54.20;;;;;;6162680;23;20055;-83
2021/06/08 12:01:56;;;;;;;0.88;0.80;;;28.10;54.30;;;;;;6213907;23;20016;-82
2021/06/08 12:04:31;;;;;;;0.70;0.70;;;28.20;54.30;;;;;;6182877;23;20108;-83
2021/06/08 12:07:08;;;;;;;0.80;0.80;;;28.20;54.10;;;;;;6161716;23;20041;-82
2021/06/08 12:09:37;;;;;;;0.57;0.57;;;28.30;53.90;;;;;;6136890;23;20017;-80
2021/06/08 12:12:07;;;;;;;0.57;0.57;;;28.30;53.90;;;;;;6185707;23;20032;-78
2021/06/08 12:14:33;;;;;;;0.60;0.60;;;28.30;54.00;;;;;;6164299;23;20004;-82
2021/06/08 12:20:21;;;;;;;0.80;0.80;;;28.50;53.90;;;;;;6130301;23;20017;-81
2021/06/08 12:22:54;;;;;;;0.80;0.80;;;28.40;53.60;;;;;;6130000;23;20469;-82
2021/06/08 12:25:32;;;;;;;0.65;0.65;;;28.20;53.70;;;;;;6120057;23;20015;-82
2021/06/08 12:28:18;;;;;;;0.70;0.70;;;28.20;53.90;;;;;;6074891;23;20033;-82
2021/06/08 12:31:19;;;;;;;1.00;0.90;;;28.10;53.70;;;;;;6108576;23;20158;-83
2021/06/08 12:33:47;;;;;;;0.80;0.80;;;28.00;53.90;;;;;;6070287;23;20070;-85
2021/06/08 12:40:23;;;;;;;0.60;0.60;;;27.80;54.00;;;;;;5942794;24;20029;-83
2021/06/08 12:47:07;;;;;;;0.80;0.80;;;27.70;54.20;;;;;;5938148;24;20024;-81
2021/06/08 12:50:31;;;;;;;0.60;0.60;;;27.70;54.20;;;;;;5937524;24;20137;-84
2021/06/08 12:53:03;;;;;;;0.70;0.70;;;27.80;54.00;;;;;;5871309;24;20026;-82
2021/06/08 12:55:32;;;;;;;0.73;0.68;;;27.70;54.00;;;;;;5872045;24;20466;-79
2021/06/08 12:58:00;;;;;;;0.65;0.65;;;27.60;54.10;;;;;;5894160;24;20431;-80
2021/06/08 13:00:29;;;;;;;0.70;0.70;;;27.50;54.00;;;;;;5870460;24;20016;-81
2021/06/08 13:04:05;;;;;;;0.70;0.70;;;27.50;54.10;;;;;;5951450;24;20439;-82
2021/06/08 13:07:21;;;;;;;0.80;0.80;;;27.40;53.90;;;;;;5894724;24;20643;-84
2021/06/08 13:10:22;;;;;;;0.80;0.80;;;27.40;53.90;;;;;;5855832;24;20025;-82
2021/06/08 13:12:50;;;;;;;0.90;0.90;;;27.30;53.80;;;;;;5873435;24;20030;-82
2021/06/08 13:15:25;;;;;;;0.80;0.80;;;27.20;53.70;;;;;;5858322;24;20042;-79
2021/06/08 13:18:01;;;;;;;0.65;0.65;;;27.20;53.80;;;;;;5876326;24;20018;-80